Delta Virtual Airport Information Service

Buffalo Niagara International Airport

ICAO: KBUF Country: United States
Latitude: 42.9405 Longitude: -78.7321
Latest Arrival : JBU1102 (KJFK-KBUF) Latest Departure : ASQ4057 (2A) (KBUF-KEWR)


WX CaptureLIVE
Data provided by noaa.gov | Fetched at 14:36:01

METAR : KBUF 291854Z 23008KT 10SM FEW035 SCT055 OVC130 17/08 A2981 RMK AO2 SLP095 T01720083

TAF : KBUF 291746Z 2918/3018 23010KT P6SM SCT050 BKN100 FM292300 21008KT 4SM RA OVC045 FM300800 21009KT 6SM BR VCSH OVC035 FM301200 23010G18KT 4SM RA OVC040 FM301500 23021G30KT 6SM BR VCSH OVC030


Runway Data for KBUF
Data provided by openaviationdata.com

Runway ID Mag Var Hdg Length Elevation Surface ILS Freq ILS Id ILS Slope
5 -9 52° 8097 ft 691 ft Asphalt 108.5 IGBI 3
14 -9 135° 7156 ft 691 ft Asphalt -- -- --
23 -9 232° 8097 ft 691 ft Asphalt 111.3 IBUF 3
32 -9 315° 7156 ft 691 ft Asphalt 109.95 IBNQ 3

Buffalo Niagara International Airport, United States
Use only for reference purposes



Not for navigational purposes.